createdAt,value
2023-11-25T00:01:26.962Z,3.70
2023-11-25T00:03:54.696Z,3.80
2023-11-25T00:06:21.861Z,3.70
2023-11-25T00:08:48.850Z,3.80
2023-11-25T00:11:25.202Z,3.80
2023-11-25T00:13:55.441Z,3.80
2023-11-25T00:16:22.452Z,3.80
2023-11-25T00:18:49.420Z,3.80
2023-11-25T00:21:16.414Z,3.70
2023-11-25T00:23:43.513Z,3.60
2023-11-25T00:26:10.505Z,3.70
2023-11-25T00:28:37.519Z,3.60
2023-11-25T00:31:04.861Z,3.60
2023-11-25T00:33:31.880Z,3.50
2023-11-25T00:35:59.816Z,3.40
2023-11-25T00:38:26.907Z,3.40
2023-11-25T00:40:54.051Z,3.40
2023-11-25T00:43:21.407Z,3.30
2023-11-25T00:45:48.464Z,3.30
2023-11-25T00:48:15.624Z,3.20
2023-11-25T00:50:42.828Z,3.20
2023-11-25T00:53:10.031Z,3.20
2023-11-25T00:55:37.182Z,3.20
2023-11-25T00:58:05.296Z,3.20
2023-11-25T01:00:32.402Z,3.30
2023-11-25T01:02:59.486Z,3.30
2023-11-25T01:05:26.481Z,3.40
2023-11-25T01:07:53.566Z,3.40
2023-11-25T01:10:20.702Z,3.50
2023-11-25T01:12:47.693Z,3.40
2023-11-25T01:15:16.421Z,3.40
2023-11-25T01:17:43.484Z,3.40
2023-11-25T01:20:11.253Z,3.40
2023-11-25T01:22:38.537Z,3.40
2023-11-25T01:25:08.128Z,3.30
2023-11-25T01:27:36.781Z,3.40
2023-11-25T01:30:07.569Z,3.30
2023-11-25T01:32:35.183Z,3.40
2023-11-25T01:35:02.433Z,3.40
2023-11-25T01:37:31.146Z,3.40
2023-11-25T01:39:59.515Z,3.40
2023-11-25T01:42:26.730Z,3.30
2023-11-25T01:44:53.717Z,3.30
2023-11-25T01:47:20.949Z,3.20
2023-11-25T01:49:48.477Z,3.20
2023-11-25T01:52:15.964Z,3.20
2023-11-25T01:54:43.107Z,3.20
2023-11-25T01:57:11.670Z,3.20
2023-11-25T01:59:39.037Z,3.30
2023-11-25T02:02:06.658Z,3.40
2023-11-25T02:04:36.615Z,3.50
2023-11-25T02:07:04.487Z,3.50
2023-11-25T02:09:32.386Z,3.50
2023-11-25T02:12:00.352Z,3.60
2023-11-25T02:14:28.217Z,3.70
2023-11-25T02:16:57.266Z,3.70
2023-11-25T02:19:25.715Z,3.70
2023-11-25T02:21:57.210Z,3.70
2023-11-25T02:24:27.964Z,3.60
2023-11-25T02:27:02.328Z,3.70
2023-11-25T02:29:30.111Z,3.70
2023-11-25T02:31:59.905Z,3.70
2023-11-25T02:34:28.665Z,3.60
2023-11-25T02:36:56.318Z,3.60
2023-11-25T02:39:24.342Z,3.60
2023-11-25T02:41:52.787Z,3.60
2023-11-25T02:44:20.964Z,3.50
2023-11-25T02:46:49.831Z,3.40
2023-11-25T02:49:17.086Z,3.40
2023-11-25T02:51:57.362Z,3.40
2023-11-25T02:54:24.715Z,3.30
2023-11-25T02:56:51.833Z,3.20
2023-11-25T02:59:19.621Z,3.20
2023-11-25T03:01:50.713Z,3.20
2023-11-25T03:04:18.906Z,3.20
2023-11-25T03:06:46.909Z,3.20
2023-11-25T03:09:16.206Z,3.10
2023-11-25T03:11:43.247Z,3.10
2023-11-25T03:14:10.488Z,3.10
2023-11-25T03:16:37.794Z,3.20
2023-11-25T03:19:07.328Z,3.20
2023-11-25T03:21:35.325Z,3.30
2023-11-25T03:24:02.308Z,3.30
2023-11-25T03:26:29.514Z,3.40
2023-11-25T03:28:56.594Z,3.30
2023-11-25T03:31:24.771Z,3.30
2023-11-25T03:33:52.219Z,3.30
2023-11-25T03:36:19.168Z,3.20
2023-11-25T03:38:46.218Z,3.10
2023-11-25T03:41:14.054Z,3.00
2023-11-25T03:43:41.173Z,2.90
2023-11-25T03:46:08.331Z,2.90
2023-11-25T03:48:36.188Z,2.80
2023-11-25T03:51:03.538Z,2.90
2023-11-25T03:53:31.784Z,3.00
2023-11-25T03:56:01.167Z,3.10
2023-11-25T03:58:28.196Z,3.10
2023-11-25T04:00:56.581Z,3.20
2023-11-25T04:03:23.738Z,3.30
2023-11-25T04:05:50.830Z,3.40
2023-11-25T04:08:17.870Z,3.30
2023-11-25T04:10:44.979Z,3.30
2023-11-25T04:13:12.038Z,3.30
2023-11-25T04:15:39.768Z,3.20
2023-11-25T04:18:06.782Z,3.10
2023-11-25T04:20:34.761Z,3.10
2023-11-25T04:23:08.623Z,3.00
2023-11-25T04:25:36.459Z,3.00
2023-11-25T04:28:06.055Z,3.00
2023-11-25T04:30:33.307Z,3.00
2023-11-25T04:33:00.656Z,3.10
2023-11-25T04:35:27.781Z,3.10
2023-11-25T04:37:54.785Z,3.20
2023-11-25T04:40:21.844Z,3.30
2023-11-25T04:42:49.963Z,3.40
2023-11-25T04:45:21.535Z,3.40
2023-11-25T04:47:51.510Z,3.50
2023-11-25T04:50:21.729Z,3.40
2023-11-25T04:52:49.109Z,3.50
2023-11-25T04:55:16.772Z,3.50
2023-11-25T04:57:45.842Z,3.50
2023-11-25T05:00:15.233Z,3.40
2023-11-25T05:02:45.641Z,3.40
2023-11-25T05:05:13.896Z,3.30
2023-11-25T05:07:42.103Z,3.20
2023-11-25T05:10:11.603Z,3.10
2023-11-25T05:12:40.440Z,3.00
2023-11-25T05:15:10.632Z,2.90
2023-11-25T05:17:38.174Z,2.90
2023-11-25T05:20:06.725Z,2.90
2023-11-25T05:22:34.071Z,2.80
2023-11-25T05:25:01.146Z,2.80
2023-11-25T05:27:28.400Z,2.80
2023-11-25T05:29:56.564Z,2.80
2023-11-25T05:32:24.090Z,2.70
2023-11-25T05:34:51.521Z,2.80
2023-11-25T05:37:20.444Z,2.70
2023-11-25T05:39:48.973Z,2.60
2023-11-25T05:42:19.847Z,2.60
2023-11-25T05:44:46.852Z,2.80
2023-11-25T05:47:13.883Z,2.80
2023-11-25T05:49:42.357Z,2.90
2023-11-25T05:52:09.675Z,2.90
2023-11-25T05:54:36.746Z,2.90
2023-11-25T05:57:03.754Z,3.00
2023-11-25T05:59:30.695Z,3.00
2023-11-25T06:01:57.933Z,3.00
2023-11-25T06:04:25.420Z,3.00
2023-11-25T06:06:52.621Z,3.10
2023-11-25T06:09:19.654Z,3.00
2023-11-25T06:11:46.891Z,3.10
2023-11-25T06:14:16.303Z,3.10
2023-11-25T06:16:43.423Z,3.10
2023-11-25T06:19:11.779Z,3.10
2023-11-25T06:21:41.143Z,3.20
2023-11-25T06:24:09.288Z,3.10
2023-11-25T06:26:36.651Z,3.20
2023-11-25T06:29:04.176Z,3.20
2023-11-25T06:31:32.971Z,3.20
2023-11-25T06:34:01.757Z,3.30
2023-11-25T06:36:29.029Z,3.40
2023-11-25T06:38:56.102Z,3.30
2023-11-25T06:41:26.448Z,3.30
2023-11-25T06:43:53.725Z,3.20
2023-11-25T06:46:23.707Z,3.10
2023-11-25T06:48:53.409Z,3.10
2023-11-25T06:51:20.366Z,3.10
2023-11-25T06:53:47.502Z,3.00
2023-11-25T06:56:18.164Z,3.00
2023-11-25T06:58:46.809Z,3.00
2023-11-25T07:01:23.173Z,2.90
2023-11-25T07:03:50.293Z,2.80
2023-11-25T07:06:19.363Z,2.80
2023-11-25T07:08:47.035Z,2.80
2023-11-25T07:11:15.256Z,2.90
2023-11-25T07:13:43.406Z,2.90
2023-11-25T07:16:13.308Z,2.90
2023-11-25T07:18:44.377Z,2.80
2023-11-25T07:21:14.774Z,2.90
2023-11-25T07:23:42.579Z,2.90
2023-11-25T07:26:13.761Z,2.90
2023-11-25T07:28:41.214Z,3.00
2023-11-25T07:31:10.871Z,3.00
2023-11-25T07:33:38.008Z,3.10
2023-11-25T07:36:05.423Z,3.10
2023-11-25T07:38:32.660Z,3.20
2023-11-25T07:41:01.281Z,3.20
2023-11-25T07:43:28.622Z,3.20
2023-11-25T07:45:55.640Z,3.20
2023-11-25T07:48:22.578Z,3.20
2023-11-25T07:50:51.390Z,3.20
2023-11-25T07:53:18.838Z,3.20
2023-11-25T07:55:45.960Z,3.30
2023-11-25T07:58:16.688Z,3.30
2023-11-25T08:00:43.707Z,3.30
2023-11-25T08:03:10.777Z,3.20
2023-11-25T08:05:38.433Z,3.20
2023-11-25T08:08:05.864Z,3.20
2023-11-25T08:10:36.013Z,3.30
2023-11-25T08:13:03.641Z,3.30
2023-11-25T08:15:32.303Z,3.30
2023-11-25T08:18:00.148Z,3.30
2023-11-25T08:20:27.631Z,3.20
2023-11-25T08:22:55.184Z,3.20
2023-11-25T08:25:22.576Z,3.10
2023-11-25T08:27:51.624Z,3.10
2023-11-25T08:30:18.834Z,3.00
2023-11-25T08:32:46.304Z,3.00
2023-11-25T08:35:14.282Z,3.00
2023-11-25T08:37:42.035Z,3.00
2023-11-25T08:40:23.096Z,3.10
2023-11-25T08:42:57.613Z,3.10
2023-11-25T08:45:27.811Z,3.20
2023-11-25T08:47:55.721Z,3.20
2023-11-25T08:50:23.206Z,3.30
2023-11-25T08:52:50.619Z,3.30
2023-11-25T08:55:21.251Z,3.40
2023-11-25T08:57:49.646Z,3.40
2023-11-25T09:00:23.345Z,3.50
2023-11-25T09:02:53.362Z,3.50
2023-11-25T09:05:27.067Z,3.50
2023-11-25T09:07:56.890Z,3.50
2023-11-25T09:10:24.550Z,3.50
2023-11-25T09:12:53.928Z,3.50
2023-11-25T09:15:21.657Z,3.50
2023-11-25T09:17:52.671Z,3.50
2023-11-25T09:20:22.274Z,3.50
2023-11-25T09:22:50.879Z,3.60
2023-11-25T09:25:18.436Z,3.60
2023-11-25T09:27:45.794Z,3.60
2023-11-25T09:30:14.439Z,3.60
2023-11-25T09:32:42.887Z,3.70
2023-11-25T09:35:13.730Z,3.70
2023-11-25T09:37:41.799Z,3.70
2023-11-25T09:40:16.149Z,3.70
2023-11-25T09:42:45.176Z,3.80
2023-11-25T09:45:13.939Z,3.90
2023-11-25T09:47:45.299Z,3.90
2023-11-25T09:50:14.642Z,3.90
2023-11-25T09:52:54.608Z,3.90
2023-11-25T09:55:26.468Z,4.00
2023-11-25T09:58:07.609Z,3.90
2023-11-25T10:00:36.930Z,3.90
2023-11-25T10:03:08.351Z,3.90
2023-11-25T10:05:35.706Z,3.90
2023-11-25T10:08:02.814Z,4.00
2023-11-25T10:10:30.434Z,4.00
2023-11-25T10:12:57.846Z,4.00
2023-11-25T10:15:24.965Z,4.10
2023-11-25T10:17:52.366Z,4.10
2023-11-25T10:20:24.035Z,4.50
2023-11-25T10:22:55.600Z,4.80
2023-11-25T10:25:23.095Z,4.90
2023-11-25T10:27:55.921Z,4.90
2023-11-25T10:30:23.591Z,4.70
2023-11-25T10:32:53.682Z,4.70
2023-11-25T10:35:23.023Z,4.70
2023-11-25T10:37:50.291Z,4.70
2023-11-25T10:40:18.276Z,4.80
2023-11-25T10:42:47.051Z,4.90
2023-11-25T10:45:18.954Z,4.80
2023-11-25T10:47:46.594Z,4.70
2023-11-25T10:50:16.802Z,4.70
2023-11-25T10:52:46.284Z,4.80
2023-11-25T10:55:14.476Z,5.20
2023-11-25T10:57:42.626Z,5.60
2023-11-25T11:00:13.334Z,5.80
2023-11-25T11:02:56.159Z,5.70
2023-11-25T11:05:33.584Z,5.50
2023-11-25T11:08:09.094Z,5.60
2023-11-25T11:10:52.811Z,5.50
2023-11-25T11:13:27.247Z,5.40
2023-11-25T11:15:58.957Z,5.70
2023-11-25T11:26:47.186Z,7.00
2023-11-25T11:43:19.831Z,6.50
2023-11-25T12:01:06.849Z,7.40
2023-11-25T12:03:59.777Z,7.10
2023-11-25T12:06:28.832Z,6.80
2023-11-25T12:11:33.434Z,6.70
2023-11-25T12:16:43.228Z,7.30
2023-11-25T12:22:13.198Z,7.50
2023-11-25T12:24:43.766Z,7.30
2023-11-25T12:27:12.973Z,7.00
2023-11-25T12:29:40.212Z,6.60
2023-11-25T12:32:07.697Z,6.40
2023-11-25T12:34:34.958Z,6.30
2023-11-25T12:37:02.709Z,6.30
2023-11-25T12:39:29.917Z,6.40
2023-11-25T12:41:57.135Z,6.30
2023-11-25T12:44:24.745Z,6.20
2023-11-25T12:47:03.360Z,6.20
2023-11-25T12:49:31.000Z,6.20
2023-11-25T12:51:58.121Z,6.10
2023-11-25T12:54:25.875Z,6.80
2023-11-25T12:56:54.596Z,7.00
2023-11-25T12:59:29.551Z,6.90
2023-11-25T13:02:14.012Z,6.70
2023-11-25T13:04:48.713Z,6.80
2023-11-25T13:07:32.714Z,6.60
2023-11-25T13:10:00.290Z,6.40
2023-11-25T13:12:30.915Z,6.20
2023-11-25T13:14:58.316Z,6.20
2023-11-25T13:17:25.936Z,6.10
2023-11-25T13:19:53.180Z,6.00
2023-11-25T13:22:20.735Z,6.00
2023-11-25T13:24:47.951Z,6.10
2023-11-25T13:27:15.054Z,6.40
2023-11-25T13:29:43.548Z,6.60
2023-11-25T13:32:12.337Z,6.90
2023-11-25T13:34:42.960Z,7.30
2023-11-25T13:37:10.276Z,7.30
2023-11-25T13:39:37.481Z,7.00
2023-11-25T13:42:09.260Z,6.80
2023-11-25T13:44:36.973Z,6.60
2023-11-25T13:47:04.467Z,6.60
2023-11-25T13:49:33.642Z,6.60
2023-11-25T13:52:01.641Z,6.60
2023-11-25T13:54:30.296Z,6.70
2023-11-25T13:56:57.830Z,6.60
2023-11-25T13:59:25.089Z,6.50
2023-11-25T14:01:52.520Z,6.50
2023-11-25T14:04:20.831Z,6.40
2023-11-25T14:06:48.080Z,6.20
2023-11-25T14:09:19.064Z,6.10
2023-11-25T14:11:47.022Z,5.90
2023-11-25T14:14:14.754Z,5.90
2023-11-25T14:16:48.916Z,5.90
2023-11-25T14:19:18.826Z,5.80
2023-11-25T14:21:46.122Z,5.80
2023-11-25T14:24:13.625Z,5.70
2023-11-25T14:26:40.767Z,5.50
2023-11-25T14:29:08.256Z,5.40
2023-11-25T14:31:35.651Z,5.30
2023-11-25T14:34:03.161Z,5.20
2023-11-25T14:36:31.771Z,5.10
2023-11-25T14:38:59.039Z,4.90
2023-11-25T14:41:26.976Z,4.90
2023-11-25T14:43:54.952Z,4.80
2023-11-25T14:46:23.404Z,4.70
2023-11-25T14:48:50.674Z,4.80
2023-11-25T14:51:17.990Z,4.80
2023-11-25T14:53:45.044Z,4.90
2023-11-25T14:56:12.344Z,4.80
2023-11-25T14:58:39.430Z,4.90
2023-11-25T15:01:07.193Z,4.80
2023-11-25T15:03:34.682Z,4.80
2023-11-25T15:06:01.716Z,4.80
2023-11-25T15:08:28.817Z,4.80
2023-11-25T15:10:57.441Z,4.70
2023-11-25T15:13:26.344Z,4.60
2023-11-25T15:15:53.355Z,4.50
2023-11-25T15:18:20.589Z,4.50
2023-11-25T15:20:47.796Z,4.60
2023-11-25T15:23:16.963Z,4.60
2023-11-25T15:25:44.149Z,4.60
2023-11-25T15:28:17.181Z,4.50
2023-11-25T15:30:44.319Z,4.40
2023-11-25T15:33:13.033Z,4.40
2023-11-25T15:35:40.290Z,4.40
2023-11-25T15:38:07.886Z,4.30
2023-11-25T15:40:35.113Z,4.30
2023-11-25T15:43:02.348Z,4.30
2023-11-25T15:45:29.335Z,4.20
2023-11-25T15:47:57.045Z,4.20
2023-11-25T15:50:24.117Z,4.10
2023-11-25T15:52:51.186Z,4.00
2023-11-25T15:55:18.212Z,3.90
2023-11-25T15:57:45.260Z,3.90
2023-11-25T16:00:15.373Z,3.90
2023-11-25T16:02:45.982Z,3.80
2023-11-25T16:05:16.752Z,3.80
2023-11-25T16:07:44.750Z,3.80
2023-11-25T16:10:15.230Z,3.80
2023-11-25T16:12:42.348Z,3.90
2023-11-25T16:15:10.321Z,3.90
2023-11-25T16:17:38.089Z,4.00
2023-11-25T16:20:05.824Z,4.00
2023-11-25T16:22:32.817Z,4.10
2023-11-25T16:24:59.926Z,4.10
2023-11-25T16:27:27.152Z,4.10
2023-11-25T16:29:56.402Z,4.20
2023-11-25T16:32:23.742Z,4.20
2023-11-25T16:34:50.978Z,4.20
2023-11-25T16:37:18.075Z,4.20
2023-11-25T16:39:45.069Z,4.20
2023-11-25T16:42:12.317Z,4.20
2023-11-25T16:44:39.622Z,4.20
2023-11-25T16:47:06.760Z,4.20
2023-11-25T16:49:41.062Z,4.30
2023-11-25T16:52:09.518Z,4.30
2023-11-25T16:54:36.610Z,4.20
2023-11-25T16:57:03.698Z,4.20
2023-11-25T16:59:30.698Z,4.20
2023-11-25T17:01:58.557Z,4.20
2023-11-25T17:04:25.729Z,4.20
2023-11-25T17:06:53.389Z,4.20
2023-11-25T17:09:21.036Z,4.20
2023-11-25T17:11:48.115Z,4.20
2023-11-25T17:14:15.168Z,4.20
2023-11-25T17:16:42.382Z,4.20
2023-11-25T17:19:11.509Z,4.20
2023-11-25T17:21:38.541Z,4.30
2023-11-25T17:24:11.806Z,4.20
2023-11-25T17:26:38.874Z,4.20
2023-11-25T17:29:06.676Z,4.20
2023-11-25T17:31:34.215Z,4.20
2023-11-25T17:34:01.280Z,4.10
2023-11-25T17:36:28.618Z,4.10
2023-11-25T17:38:55.655Z,4.10
2023-11-25T17:41:22.670Z,4.10
2023-11-25T17:43:49.732Z,4.10
2023-11-25T17:46:16.908Z,4.20
2023-11-25T17:48:43.959Z,4.10
2023-11-25T17:51:11.082Z,4.10
2023-11-25T17:53:38.736Z,4.10
2023-11-25T17:56:06.078Z,4.10
2023-11-25T17:58:33.295Z,4.10
2023-11-25T18:01:00.902Z,4.10
2023-11-25T18:03:27.862Z,4.10
2023-11-25T18:05:54.814Z,4.10
2023-11-25T18:08:22.023Z,4.10
2023-11-25T18:10:49.241Z,4.10
2023-11-25T18:13:16.642Z,4.10
2023-11-25T18:15:44.248Z,4.10
2023-11-25T18:18:11.537Z,4.10
2023-11-25T18:20:38.544Z,4.00
2023-11-25T18:23:05.622Z,4.10
2023-11-25T18:25:32.712Z,4.20
2023-11-25T18:27:59.897Z,4.20
2023-11-25T18:30:27.052Z,4.30
2023-11-25T18:32:54.122Z,4.30
2023-11-25T18:35:21.229Z,4.30
2023-11-25T18:37:48.442Z,4.30
2023-11-25T18:40:16.833Z,4.30
2023-11-25T18:42:44.822Z,4.30
2023-11-25T18:45:12.296Z,4.30
2023-11-25T18:47:39.365Z,4.30
2023-11-25T18:50:07.817Z,4.30
2023-11-25T18:52:35.533Z,4.30
2023-11-25T18:55:02.499Z,4.20
2023-11-25T18:57:29.477Z,4.30
2023-11-25T18:59:56.989Z,4.30
2023-11-25T19:02:24.164Z,4.30
2023-11-25T19:04:51.196Z,4.30
2023-11-25T19:07:18.205Z,4.30
2023-11-25T19:09:45.137Z,4.30
2023-11-25T19:12:15.107Z,4.20
2023-11-25T19:14:42.163Z,4.20
2023-11-25T19:17:09.298Z,4.30
2023-11-25T19:19:36.761Z,4.30
2023-11-25T19:22:11.402Z,4.30
2023-11-25T19:24:39.006Z,4.30
2023-11-25T19:27:06.057Z,4.40
2023-11-25T19:29:33.304Z,4.40
2023-11-25T19:32:00.304Z,4.50
2023-11-25T19:34:27.276Z,4.50
2023-11-25T19:36:54.272Z,4.60
2023-11-25T19:39:22.284Z,4.50
2023-11-25T19:41:49.529Z,4.50
2023-11-25T19:44:16.575Z,4.40
2023-11-25T19:46:43.638Z,4.40
2023-11-25T19:49:14.144Z,4.40
2023-11-25T19:51:41.689Z,4.40
2023-11-25T19:54:08.868Z,4.30
2023-11-25T19:56:38.904Z,4.10
2023-11-25T19:59:07.424Z,4.10
2023-11-25T20:01:36.499Z,4.10
2023-11-25T20:04:03.662Z,4.10
2023-11-25T20:06:30.647Z,4.10
2023-11-25T20:08:57.603Z,4.00
2023-11-25T20:11:25.772Z,3.90
2023-11-25T20:13:52.809Z,3.90
2023-11-25T20:16:19.802Z,3.90
2023-11-25T20:18:46.947Z,3.90
2023-11-25T20:21:14.610Z,4.00
2023-11-25T20:23:42.242Z,4.00
2023-11-25T20:26:09.460Z,4.10
2023-11-25T20:28:36.754Z,4.10
2023-11-25T20:31:04.370Z,4.10
2023-11-25T20:33:31.389Z,3.90
2023-11-25T20:35:58.438Z,3.90
2023-11-25T20:38:25.505Z,3.80
2023-11-25T20:40:52.483Z,3.80
2023-11-25T20:43:19.802Z,3.70
2023-11-25T20:45:47.224Z,3.60
2023-11-25T20:48:14.439Z,3.60
2023-11-25T20:50:43.871Z,3.50
2023-11-25T20:53:11.947Z,3.50
2023-11-25T20:55:40.240Z,3.40
2023-11-25T20:58:09.065Z,3.40
2023-11-25T21:00:39.183Z,3.40
2023-11-25T21:03:06.730Z,3.40
2023-11-25T21:05:35.954Z,3.30
2023-11-25T21:08:03.126Z,3.30
2023-11-25T21:10:30.084Z,3.40
2023-11-25T21:12:57.888Z,3.40
2023-11-25T21:15:25.987Z,3.40
2023-11-25T21:17:52.983Z,3.30
2023-11-25T21:20:20.158Z,3.30
2023-11-25T21:22:47.435Z,3.40
2023-11-25T21:25:17.820Z,3.30
2023-11-25T21:27:44.982Z,3.30
2023-11-25T21:30:12.523Z,3.30
2023-11-25T21:32:41.784Z,3.30
2023-11-25T21:35:09.507Z,3.40
2023-11-25T21:37:36.524Z,3.40
2023-11-25T21:40:13.247Z,3.50
2023-11-25T21:42:47.216Z,3.50
2023-11-25T21:45:14.384Z,3.50
2023-11-25T21:47:41.483Z,3.50
2023-11-25T21:50:09.875Z,3.40
2023-11-25T21:52:37.359Z,3.30
2023-11-25T21:55:05.458Z,3.30
2023-11-25T21:57:32.530Z,3.30
2023-11-25T21:59:59.572Z,3.30
2023-11-25T22:02:27.614Z,3.40
2023-11-25T22:04:54.695Z,3.40
2023-11-25T22:12:46.935Z,3.50
2023-11-25T22:15:14.087Z,3.60
2023-11-25T22:17:41.148Z,3.60
2023-11-25T22:20:09.505Z,3.60
2023-11-25T22:22:36.725Z,3.50
2023-11-25T22:25:10.917Z,3.50
2023-11-25T22:30:13.829Z,3.50
2023-11-25T22:32:40.886Z,3.60
2023-11-25T22:35:08.320Z,3.60
2023-11-25T22:37:35.363Z,3.60
2023-11-25T22:40:02.358Z,3.70
2023-11-25T22:42:29.569Z,3.70
2023-11-25T22:44:56.876Z,3.60
2023-11-25T22:47:23.986Z,3.60
2023-11-25T22:49:51.036Z,3.70
2023-11-25T22:52:18.234Z,3.50
2023-11-25T22:54:45.430Z,3.50
2023-11-25T22:57:12.508Z,3.50
2023-11-25T22:59:39.548Z,3.60
2023-11-25T23:02:08.775Z,3.50
2023-11-25T23:04:35.993Z,3.50
2023-11-25T23:07:03.021Z,3.50
2023-11-25T23:09:29.948Z,3.30
2023-11-25T23:11:57.842Z,3.20
2023-11-25T23:14:24.927Z,3.10
2023-11-25T23:16:51.921Z,3.00
2023-11-25T23:19:19.158Z,3.00
2023-11-25T23:21:46.304Z,3.00
2023-11-25T23:24:13.450Z,2.90
2023-11-25T23:26:43.803Z,2.90
2023-11-25T23:29:11.157Z,2.90
2023-11-25T23:31:38.579Z,2.90
2023-11-25T23:34:05.645Z,2.70
2023-11-25T23:36:32.672Z,2.70
2023-11-25T23:38:59.711Z,2.70
2023-11-25T23:41:27.025Z,2.70
2023-11-25T23:43:54.337Z,2.70
2023-11-25T23:46:22.104Z,2.70
2023-11-25T23:48:49.148Z,2.60
2023-11-25T23:51:16.142Z,2.50
2023-11-25T23:53:43.365Z,2.50
2023-11-25T23:56:10.486Z,2.50
2023-11-25T23:58:37.489Z,2.40
